createdAt,value
2019-03-10T00:00:36.054Z,95.50
2019-03-10T00:03:05.739Z,95.30
2019-03-10T00:05:35.509Z,95.50
2019-03-10T00:08:07.709Z,95.10
2019-03-10T00:10:36.961Z,95.20
2019-03-10T00:13:06.536Z,95.20
2019-03-10T00:15:36.453Z,95.00
2019-03-10T00:18:06.404Z,94.90
2019-03-10T00:20:36.056Z,94.90
2019-03-10T00:23:05.748Z,94.90
2019-03-10T00:25:35.653Z,94.90
2019-03-10T00:28:05.472Z,95.00
2019-03-10T00:30:34.998Z,95.30
2019-03-10T00:33:04.688Z,95.50
2019-03-10T00:35:34.319Z,95.50
2019-03-10T00:38:04.001Z,95.70
2019-03-10T00:41:15.289Z,95.90
2019-03-10T00:44:27.794Z,96.20
2019-03-10T00:47:35.809Z,96.20
2019-03-10T00:50:52.518Z,96.40
2019-03-10T00:53:22.128Z,96.50
2019-03-10T00:55:51.819Z,96.60
2019-03-10T00:58:21.707Z,96.70
2019-03-10T01:00:51.416Z,96.80
2019-03-10T01:03:21.351Z,97.40
2019-03-10T01:05:51.039Z,97.10
2019-03-10T01:08:20.660Z,97.00
2019-03-10T01:10:50.723Z,97.20
2019-03-10T01:13:20.321Z,97.10
2019-03-10T01:15:50.532Z,97.20
2019-03-10T01:18:21.163Z,97.10
2019-03-10T01:20:52.328Z,97.10
2019-03-10T01:23:21.935Z,97.10
2019-03-10T01:25:51.507Z,97.00
2019-03-10T01:28:21.207Z,97.20
2019-03-10T01:31:00.635Z,97.20
2019-03-10T01:34:11.698Z,97.20
2019-03-10T01:36:41.569Z,97.40
2019-03-10T01:39:11.353Z,97.40
2019-03-10T01:41:41.007Z,97.50
2019-03-10T01:44:10.727Z,97.50
2019-03-10T01:46:40.595Z,97.60
2019-03-10T01:49:10.865Z,97.70
2019-03-10T01:51:40.466Z,97.90
2019-03-10T01:54:10.260Z,98.00
2019-03-10T01:56:39.882Z,98.20
2019-03-10T01:59:09.785Z,98.30
2019-03-10T02:01:39.574Z,98.40
2019-03-10T02:04:09.356Z,98.60
2019-03-10T02:06:38.897Z,98.60
2019-03-10T02:09:08.566Z,98.80
2019-03-10T02:11:38.381Z,98.90
2019-03-10T02:14:08.036Z,99.00
2019-03-10T02:16:37.653Z,99.10
2019-03-10T02:19:07.380Z,99.30
2019-03-10T02:21:37.179Z,99.30
2019-03-10T02:24:07.116Z,99.50
2019-03-10T02:26:37.084Z,99.70
2019-03-10T02:29:06.696Z,99.80
2019-03-10T02:31:36.354Z,99.70
2019-03-10T02:34:06.045Z,99.70
2019-03-10T02:36:35.806Z,99.80
2019-03-10T02:39:06.402Z,99.70
2019-03-10T02:41:36.290Z,99.70
2019-03-10T02:44:05.984Z,99.60
2019-03-10T02:46:35.640Z,99.60
2019-03-10T02:49:05.289Z,99.50
2019-03-10T02:51:35.238Z,99.30
2019-03-10T02:54:05.125Z,99.20
2019-03-10T02:56:34.779Z,99.20
2019-03-10T02:59:04.445Z,99.30
2019-03-10T03:01:34.263Z,99.30
2019-03-10T03:04:03.840Z,99.20
2019-03-10T03:06:33.677Z,98.90
2019-03-10T03:09:03.229Z,98.90
2019-03-10T03:11:33.254Z,98.60
2019-03-10T03:14:03.067Z,98.70
2019-03-10T03:16:32.756Z,98.90
2019-03-10T03:19:02.646Z,99.00
2019-03-10T03:21:43.060Z,99.30
2019-03-10T03:24:03.618Z,99.50
2019-03-10T03:26:33.263Z,99.50
2019-03-10T03:29:02.882Z,99.50
2019-03-10T03:31:32.568Z,99.60
2019-03-10T03:34:02.222Z,99.70
2019-03-10T03:36:36.592Z,99.90
2019-03-10T03:39:38.851Z,99.90
2019-03-10T03:42:08.569Z,99.90
2019-03-10T03:44:38.348Z,99.90
2019-03-10T03:47:07.917Z,99.90
2019-03-10T03:49:37.784Z,99.90
2019-03-10T03:52:07.309Z,99.90
2019-03-10T03:54:37.061Z,99.90
2019-03-10T03:57:06.626Z,99.90
2019-03-10T03:59:36.402Z,99.90
2019-03-10T04:02:31.053Z,99.90
2019-03-10T04:05:00.658Z,99.90
2019-03-10T04:07:30.424Z,99.90
2019-03-10T04:10:00.468Z,99.90
2019-03-10T04:12:30.099Z,99.90
2019-03-10T04:15:00.231Z,99.90
2019-03-10T04:17:30.112Z,99.90
2019-03-10T04:19:59.827Z,99.90
2019-03-10T04:22:29.618Z,99.90
2019-03-10T04:24:59.576Z,99.90
2019-03-10T04:27:29.290Z,99.90
2019-03-10T04:29:59.032Z,99.90
2019-03-10T04:32:28.775Z,99.90
2019-03-10T04:34:58.585Z,99.90
2019-03-10T04:37:28.255Z,99.90
2019-03-10T04:39:57.894Z,99.90
2019-03-10T04:42:27.473Z,99.90
2019-03-10T04:44:57.322Z,99.90
2019-03-10T04:47:27.136Z,99.90
2019-03-10T04:49:56.845Z,99.90
2019-03-10T04:52:26.752Z,99.90
2019-03-10T04:55:13.944Z,99.90
2019-03-10T04:57:58.740Z,99.90
2019-03-10T05:00:29.189Z,99.90
2019-03-10T05:02:58.949Z,99.90
2019-03-10T05:05:28.737Z,99.90
2019-03-10T05:07:58.326Z,99.90
2019-03-10T05:10:28.211Z,99.90
2019-03-10T05:12:57.934Z,99.90
2019-03-10T05:15:27.639Z,99.90
2019-03-10T05:17:57.354Z,99.90
2019-03-10T05:20:27.083Z,99.90
2019-03-10T05:23:43.587Z,99.90
2019-03-10T05:26:14.045Z,99.90
2019-03-10T05:28:45.539Z,99.90
2019-03-10T05:31:15.300Z,99.90
2019-03-10T05:33:44.995Z,99.90
2019-03-10T05:36:14.749Z,99.90
2019-03-10T05:38:44.406Z,99.90
2019-03-10T05:41:14.198Z,99.90
2019-03-10T05:43:43.906Z,99.90
2019-03-10T05:46:13.545Z,99.90
2019-03-10T05:48:43.159Z,99.90
2019-03-10T05:51:12.810Z,99.90
2019-03-10T05:53:42.545Z,99.90
2019-03-10T05:56:12.278Z,99.90
2019-03-10T05:58:41.822Z,99.90
2019-03-10T06:01:11.561Z,99.90
2019-03-10T06:03:41.281Z,99.90
2019-03-10T06:06:10.862Z,99.90
2019-03-10T06:08:40.587Z,99.90
2019-03-10T06:11:10.347Z,99.90
2019-03-10T06:13:40.022Z,99.90
2019-03-10T06:16:09.774Z,99.90
2019-03-10T06:18:39.312Z,99.90
2019-03-10T06:21:09.303Z,99.90
2019-03-10T06:23:39.097Z,99.90
2019-03-10T06:26:08.904Z,99.90
2019-03-10T06:28:38.620Z,99.90
2019-03-10T06:31:08.204Z,99.90
2019-03-10T06:33:37.815Z,99.90
2019-03-10T06:36:07.552Z,99.90
2019-03-10T06:38:37.442Z,99.90
2019-03-10T06:41:06.960Z,99.90
2019-03-10T06:43:36.620Z,99.90
2019-03-10T06:46:06.396Z,99.90
2019-03-10T06:48:36.276Z,99.90
2019-03-10T06:51:05.813Z,99.90
2019-03-10T06:53:35.453Z,99.90
2019-03-10T06:56:05.196Z,99.90
2019-03-10T06:58:35.109Z,99.90
2019-03-10T07:01:04.689Z,99.90
2019-03-10T07:03:34.357Z,99.90
2019-03-10T07:06:04.150Z,99.90
2019-03-10T07:08:33.761Z,99.90
2019-03-10T07:11:03.323Z,99.90
2019-03-10T07:13:33.109Z,99.90
2019-03-10T07:16:02.780Z,99.90
2019-03-10T07:18:32.490Z,99.90
2019-03-10T07:21:02.313Z,99.90
2019-03-10T07:23:32.022Z,99.90
2019-03-10T07:26:08.457Z,99.90
2019-03-10T07:28:57.330Z,99.90
2019-03-10T07:31:37.123Z,99.90
2019-03-10T07:34:25.804Z,99.90
2019-03-10T07:37:19.637Z,99.90
2019-03-10T07:40:06.992Z,99.90
2019-03-10T07:43:01.730Z,99.90
2019-03-10T07:45:47.544Z,99.90
2019-03-10T07:48:39.924Z,99.90
2019-03-10T07:51:34.322Z,99.90
2019-03-10T07:54:25.295Z,99.90
2019-03-10T07:57:26.247Z,99.90
2019-03-10T08:00:14.255Z,99.90
2019-03-10T08:03:01.749Z,99.90
2019-03-10T08:05:56.488Z,99.90
2019-03-10T08:08:32.095Z,99.90
2019-03-10T08:11:20.625Z,99.90
2019-03-10T08:14:12.277Z,99.90
2019-03-10T08:17:00.720Z,99.90
2019-03-10T08:19:58.514Z,99.90
2019-03-10T08:22:45.955Z,99.90
2019-03-10T08:25:21.743Z,99.90
2019-03-10T08:28:17.246Z,99.90
2019-03-10T08:31:21.064Z,99.90
2019-03-10T08:34:24.990Z,99.90
2019-03-10T08:37:09.827Z,99.90
2019-03-10T08:39:55.955Z,99.90
2019-03-10T08:42:50.752Z,99.90
2019-03-10T08:45:27.732Z,99.90
2019-03-10T08:48:22.721Z,99.90
2019-03-10T08:51:11.292Z,99.90
2019-03-10T08:53:54.704Z,99.90
2019-03-10T08:56:32.204Z,99.90
2019-03-10T08:59:15.411Z,99.90
2019-03-10T09:02:10.103Z,99.90
2019-03-10T09:04:57.567Z,99.90
2019-03-10T09:07:47.450Z,99.90
2019-03-10T09:10:38.999Z,99.90
2019-03-10T09:13:24.581Z,99.90
2019-03-10T09:16:11.041Z,99.90
2019-03-10T09:19:30.444Z,99.90
2019-03-10T09:22:31.214Z,99.90
2019-03-10T09:25:25.852Z,99.90
2019-03-10T09:28:33.045Z,99.90
2019-03-10T09:31:33.757Z,99.90
2019-03-10T09:34:22.339Z,99.90
2019-03-10T09:37:09.761Z,99.90
2019-03-10T09:40:00.109Z,99.90
2019-03-10T09:43:00.778Z,99.90
2019-03-10T09:45:40.333Z,99.90
2019-03-10T09:48:18.955Z,99.90
2019-03-10T09:51:16.718Z,99.90
2019-03-10T09:54:04.174Z,99.90
2019-03-10T09:56:40.088Z,99.90
2019-03-10T09:59:16.303Z,99.90
2019-03-10T10:02:20.200Z,99.90
2019-03-10T10:05:08.888Z,99.90
2019-03-10T10:07:55.746Z,99.90
2019-03-10T10:10:40.311Z,99.90
2019-03-10T10:13:19.024Z,99.90
2019-03-10T10:16:26.225Z,99.90
2019-03-10T10:19:10.318Z,99.90
2019-03-10T10:22:05.139Z,99.90
2019-03-10T10:25:06.261Z,99.90
2019-03-10T10:27:49.740Z,99.90
2019-03-10T10:30:53.712Z,99.90
2019-03-10T10:33:42.938Z,99.90
2019-03-10T10:36:26.577Z,99.90
2019-03-10T10:39:24.433Z,99.90
2019-03-10T10:42:15.687Z,99.90
2019-03-10T10:44:59.696Z,99.90
2019-03-10T10:47:54.436Z,99.90
2019-03-10T10:50:41.644Z,99.90
2019-03-10T10:53:21.698Z,99.90
2019-03-10T10:56:13.102Z,99.90
2019-03-10T10:59:04.582Z,99.90
2019-03-10T11:02:01.364Z,99.90
2019-03-10T11:04:52.913Z,99.90
2019-03-10T11:07:33.138Z,99.90
2019-03-10T11:10:36.921Z,99.90
2019-03-10T11:13:44.050Z,99.90
2019-03-10T11:16:19.582Z,99.90
2019-03-10T11:19:07.005Z,99.90
2019-03-10T11:21:55.729Z,99.90
2019-03-10T11:24:33.472Z,99.90
2019-03-10T11:27:11.849Z,99.90
2019-03-10T11:29:57.160Z,99.90
2019-03-10T11:32:43.940Z,99.90
2019-03-10T11:35:28.939Z,99.90
2019-03-10T11:38:11.779Z,99.90
2019-03-10T11:41:00.942Z,99.90
2019-03-10T11:43:38.725Z,99.90
2019-03-10T11:46:43.760Z,99.90
2019-03-10T11:49:25.856Z,99.90
2019-03-10T11:52:20.145Z,99.90
2019-03-10T11:55:14.926Z,99.90
2019-03-10T11:58:09.674Z,99.90
2019-03-10T12:00:58.554Z,99.90
2019-03-10T12:03:34.672Z,99.90
2019-03-10T12:06:19.142Z,99.90
2019-03-10T12:08:59.268Z,99.90
2019-03-10T12:11:29.035Z,99.90
2019-03-10T12:13:58.857Z,99.90
2019-03-10T12:16:31.103Z,99.90
2019-03-10T12:19:00.053Z,99.90
2019-03-10T12:21:29.961Z,99.90
2019-03-10T12:23:59.829Z,99.90
2019-03-10T12:26:29.501Z,99.90
2019-03-10T12:28:59.348Z,99.90
2019-03-10T12:31:29.201Z,99.90
2019-03-10T12:33:58.908Z,99.90
2019-03-10T12:36:28.683Z,99.90
2019-03-10T12:38:58.376Z,99.90
2019-03-10T12:41:28.141Z,99.90
2019-03-10T12:43:57.908Z,99.90
2019-03-10T12:46:27.768Z,99.90
2019-03-10T12:48:57.595Z,99.90
2019-03-10T12:51:27.583Z,99.90
2019-03-10T12:53:57.528Z,99.90
2019-03-10T12:56:27.309Z,99.90
2019-03-10T12:58:57.039Z,99.90
2019-03-10T13:01:26.680Z,99.90
2019-03-10T13:03:59.227Z,99.90
2019-03-10T13:06:27.939Z,99.90
2019-03-10T13:08:57.650Z,99.90
2019-03-10T13:11:27.540Z,99.90
2019-03-10T13:13:57.348Z,99.90
2019-03-10T13:16:27.156Z,99.90
2019-03-10T13:18:56.810Z,99.90
2019-03-10T13:21:26.604Z,99.90
2019-03-10T13:23:56.197Z,99.90
2019-03-10T13:26:25.739Z,99.90
2019-03-10T13:28:55.342Z,99.90
2019-03-10T13:31:24.958Z,99.90
2019-03-10T13:33:54.860Z,99.90
2019-03-10T13:36:24.476Z,99.90
2019-03-10T13:38:54.010Z,99.90
2019-03-10T13:41:23.586Z,99.90
2019-03-10T13:43:53.224Z,99.90
2019-03-10T13:46:22.780Z,99.90
2019-03-10T13:48:52.544Z,99.90
2019-03-10T13:51:22.327Z,99.90
2019-03-10T13:53:52.059Z,99.90
2019-03-10T13:56:21.740Z,99.90
2019-03-10T13:58:51.352Z,99.90
2019-03-10T14:01:21.239Z,99.90
2019-03-10T14:03:50.762Z,99.90
2019-03-10T14:06:20.682Z,99.90
2019-03-10T14:08:50.447Z,99.90
2019-03-10T14:11:20.172Z,99.30
2019-03-10T14:13:49.967Z,99.30
2019-03-10T14:16:20.630Z,99.90
2019-03-10T14:18:50.327Z,98.00
2019-03-10T14:21:20.027Z,97.80
2019-03-10T14:23:49.697Z,97.10
2019-03-10T14:26:19.586Z,97.70
2019-03-10T14:28:49.262Z,98.60
2019-03-10T14:31:18.806Z,98.50
2019-03-10T14:33:48.825Z,97.50
2019-03-10T14:36:18.492Z,98.10
2019-03-10T14:38:48.229Z,99.20
2019-03-10T14:41:17.797Z,98.20
2019-03-10T14:43:47.548Z,97.00
2019-03-10T14:46:17.555Z,97.00
2019-03-10T14:48:47.190Z,96.80
2019-03-10T14:51:17.486Z,96.50
2019-03-10T14:53:47.316Z,96.30
2019-03-10T14:56:16.981Z,96.30
2019-03-10T14:58:46.616Z,96.70
2019-03-10T15:01:16.586Z,96.10
2019-03-10T15:03:46.496Z,95.60
2019-03-10T15:06:16.194Z,94.70
2019-03-10T15:08:46.506Z,95.30
2019-03-10T15:11:16.256Z,94.60
2019-03-10T15:13:46.118Z,94.40
2019-03-10T15:16:16.071Z,94.40
2019-03-10T15:18:46.072Z,93.10
2019-03-10T15:21:15.660Z,93.00
2019-03-10T15:23:45.233Z,92.70
2019-03-10T15:26:15.081Z,92.40
2019-03-10T15:28:44.652Z,92.60
2019-03-10T15:31:14.499Z,92.30
2019-03-10T15:33:44.309Z,92.30
2019-03-10T15:36:20.294Z,92.60
2019-03-10T15:38:45.182Z,93.00
2019-03-10T15:41:14.877Z,92.90
2019-03-10T15:43:44.631Z,92.60
2019-03-10T15:46:14.243Z,93.60
2019-03-10T15:48:44.156Z,93.20
2019-03-10T15:51:13.765Z,93.50
2019-03-10T15:53:43.398Z,94.20
2019-03-10T15:56:13.043Z,93.80
2019-03-10T15:58:42.862Z,94.00
2019-03-10T16:01:12.534Z,95.10
2019-03-10T16:03:42.177Z,94.30
2019-03-10T16:06:12.233Z,94.90
2019-03-10T16:08:41.854Z,98.10
2019-03-10T16:11:11.739Z,99.90
2019-03-10T16:13:41.645Z,99.90
2019-03-10T16:16:11.359Z,99.90
2019-03-10T16:18:41.037Z,99.90
2019-03-10T16:21:11.107Z,99.90
2019-03-10T16:23:41.013Z,99.90
2019-03-10T16:26:10.741Z,99.90
2019-03-10T16:28:40.604Z,99.90
2019-03-10T16:31:10.358Z,99.90
2019-03-10T16:33:40.129Z,99.90
2019-03-10T16:36:09.727Z,99.90
2019-03-10T16:38:39.453Z,99.90
2019-03-10T16:41:09.083Z,99.90
2019-03-10T16:43:38.739Z,99.90
2019-03-10T16:46:08.396Z,99.90
2019-03-10T16:48:38.144Z,99.90
2019-03-10T16:51:08.028Z,99.90
2019-03-10T16:53:37.931Z,99.90
2019-03-10T16:56:07.490Z,99.90
2019-03-10T16:58:37.380Z,99.90
2019-03-10T17:01:07.124Z,99.90
2019-03-10T17:03:36.784Z,99.90
2019-03-10T17:06:06.610Z,99.90
2019-03-10T17:08:36.645Z,99.90
2019-03-10T17:11:06.433Z,99.90
2019-03-10T17:13:36.565Z,99.90
2019-03-10T17:16:06.096Z,99.90
2019-03-10T17:18:36.090Z,99.90
2019-03-10T17:21:05.885Z,99.90
2019-03-10T17:23:35.822Z,99.90
2019-03-10T17:26:05.718Z,99.90
2019-03-10T17:28:35.380Z,99.90
2019-03-10T17:31:04.979Z,99.90
2019-03-10T17:33:34.822Z,99.90
2019-03-10T17:36:04.657Z,99.90
2019-03-10T17:38:34.554Z,99.90
2019-03-10T17:41:04.492Z,98.80
2019-03-10T17:43:34.350Z,98.40
2019-03-10T17:46:04.116Z,99.00
2019-03-10T17:48:34.005Z,99.10
2019-03-10T17:51:03.868Z,99.10
2019-03-10T17:53:33.761Z,99.50
2019-03-10T17:56:03.680Z,99.90
2019-03-10T17:58:34.194Z,99.90
2019-03-10T18:01:03.947Z,99.90
2019-03-10T18:03:33.828Z,99.90
2019-03-10T18:06:03.527Z,99.90
2019-03-10T18:08:33.420Z,99.90
2019-03-10T18:11:03.136Z,99.90
2019-03-10T18:13:32.788Z,99.90
2019-03-10T18:16:02.570Z,99.90
2019-03-10T18:18:32.450Z,99.90
2019-03-10T18:21:02.423Z,99.90
2019-03-10T18:23:32.547Z,99.90
2019-03-10T18:26:02.453Z,99.90
2019-03-10T18:28:32.448Z,99.90
2019-03-10T18:31:02.122Z,99.90
2019-03-10T18:33:32.107Z,99.90
2019-03-10T18:36:02.101Z,99.90
2019-03-10T18:38:32.071Z,99.90
2019-03-10T18:41:01.717Z,99.00
2019-03-10T18:43:31.455Z,98.20
2019-03-10T18:46:01.390Z,98.30
2019-03-10T18:48:31.390Z,97.90
2019-03-10T18:51:01.450Z,97.70
2019-03-10T18:53:31.200Z,97.10
2019-03-10T18:56:01.010Z,97.30
2019-03-10T18:58:30.946Z,97.00
2019-03-10T19:01:00.886Z,97.50
2019-03-10T19:03:30.777Z,97.20
2019-03-10T19:06:00.501Z,96.50
2019-03-10T19:08:30.359Z,96.40
2019-03-10T19:11:00.442Z,96.70
2019-03-10T19:13:30.311Z,96.60
2019-03-10T19:16:00.118Z,96.20
2019-03-10T19:18:30.041Z,96.20
2019-03-10T19:20:59.588Z,96.00
2019-03-10T19:23:29.409Z,96.40
2019-03-10T19:25:59.323Z,96.30
2019-03-10T19:28:29.337Z,96.40
2019-03-10T19:30:59.046Z,95.80
2019-03-10T19:33:28.871Z,95.00
2019-03-10T19:35:58.562Z,95.00
2019-03-10T19:38:28.486Z,94.70
2019-03-10T19:40:58.277Z,94.10
2019-03-10T19:43:28.332Z,94.30
2019-03-10T19:45:58.221Z,94.20
2019-03-10T19:48:28.240Z,94.20
2019-03-10T19:50:58.402Z,93.70
2019-03-10T19:53:28.418Z,94.00
2019-03-10T19:55:58.403Z,93.80
2019-03-10T19:58:28.427Z,94.00
2019-03-10T20:00:58.310Z,93.80
2019-03-10T20:03:28.373Z,94.10
2019-03-10T20:05:58.406Z,93.50
2019-03-10T20:08:28.412Z,93.10
2019-03-10T20:11:17.129Z,93.40
2019-03-10T20:13:47.159Z,93.90
2019-03-10T20:16:17.107Z,93.40
2019-03-10T20:18:47.262Z,93.70
2019-03-10T20:21:17.322Z,94.10
2019-03-10T20:23:47.176Z,93.80
2019-03-10T20:26:17.260Z,93.70
2019-03-10T20:28:47.360Z,93.30
2019-03-10T20:31:17.396Z,92.90
2019-03-10T20:33:47.557Z,93.00
2019-03-10T20:36:17.231Z,93.20
2019-03-10T20:38:47.155Z,93.00
2019-03-10T20:41:17.448Z,92.90
2019-03-10T20:43:47.338Z,93.00
2019-03-10T20:46:17.416Z,93.60
2019-03-10T20:48:47.389Z,93.80
2019-03-10T20:51:19.935Z,93.20
2019-03-10T20:53:49.903Z,93.50
2019-03-10T20:56:19.904Z,93.20
2019-03-10T20:58:49.661Z,92.70
2019-03-10T21:01:21.344Z,92.60
2019-03-10T21:03:51.468Z,92.90
2019-03-10T21:06:21.275Z,93.10
2019-03-10T21:08:51.165Z,93.00
2019-03-10T21:11:20.941Z,93.10
2019-03-10T21:13:50.744Z,92.60
2019-03-10T21:16:20.452Z,92.20
2019-03-10T21:18:50.499Z,92.80
2019-03-10T21:21:20.158Z,92.50
2019-03-10T21:23:49.812Z,92.60
2019-03-10T21:26:19.609Z,92.40
2019-03-10T21:28:49.284Z,92.10
2019-03-10T21:31:19.310Z,92.00
2019-03-10T21:33:49.342Z,92.30
2019-03-10T21:36:19.164Z,92.20
2019-03-10T21:38:48.885Z,92.00
2019-03-10T21:41:18.656Z,92.50
2019-03-10T21:43:48.358Z,92.60
2019-03-10T21:46:18.720Z,93.20
2019-03-10T21:48:48.449Z,93.60
2019-03-10T21:51:19.188Z,96.10
2019-03-10T21:53:49.062Z,97.90
2019-03-10T21:56:18.708Z,99.60
2019-03-10T21:58:48.353Z,99.90
2019-03-10T22:01:17.951Z,99.90
2019-03-10T22:03:47.632Z,99.90
2019-03-10T22:06:17.328Z,99.90
2019-03-10T22:08:47.044Z,99.90
2019-03-10T22:11:16.763Z,99.90
2019-03-10T22:13:47.079Z,99.90
2019-03-10T22:16:16.905Z,99.90
2019-03-10T22:18:46.497Z,99.90
2019-03-10T22:21:16.221Z,99.90
2019-03-10T22:23:46.121Z,99.90
2019-03-10T22:26:15.829Z,99.90
2019-03-10T22:28:45.569Z,99.90
2019-03-10T22:31:15.255Z,99.90
2019-03-10T22:33:45.037Z,99.90
2019-03-10T22:36:14.769Z,99.10
2019-03-10T22:38:44.427Z,99.30
2019-03-10T22:41:14.211Z,99.90
2019-03-10T22:43:43.801Z,99.90
2019-03-10T22:46:13.449Z,99.90
2019-03-10T22:48:43.125Z,99.90
2019-03-10T22:51:15.612Z,99.90
2019-03-10T22:53:45.296Z,99.90
2019-03-10T22:56:15.111Z,99.70
2019-03-10T22:58:44.777Z,99.60
2019-03-10T23:01:14.454Z,99.90
2019-03-10T23:03:44.072Z,99.50
2019-03-10T23:06:13.834Z,99.10
2019-03-10T23:08:43.550Z,99.30
2019-03-10T23:11:13.206Z,99.80
2019-03-10T23:13:42.841Z,99.60
2019-03-10T23:16:12.545Z,99.20
2019-03-10T23:18:42.221Z,98.70
2019-03-10T23:21:12.078Z,99.00
2019-03-10T23:23:41.737Z,98.50
2019-03-10T23:26:11.615Z,97.90
2019-03-10T23:28:41.340Z,97.70
2019-03-10T23:31:10.931Z,97.80
2019-03-10T23:33:40.602Z,97.50
2019-03-10T23:36:10.494Z,97.40
2019-03-10T23:38:40.002Z,97.10
2019-03-10T23:41:09.817Z,96.90
2019-03-10T23:43:39.493Z,96.50
2019-03-10T23:46:09.204Z,95.40
2019-03-10T23:48:38.900Z,95.90
2019-03-10T23:51:08.547Z,95.40
2019-03-10T23:53:38.267Z,95.20
2019-03-10T23:56:07.915Z,94.50
2019-03-10T23:58:37.511Z,94.40
